Flight Track Log - Related Links

Times and Time Zones

All times are in EDT time to prevent confusion due to time zone crossing. See the N349MC flight status page for this flight to view local times or setup timezone preferences in your user account.

Time Position Orientation Groundspeed Altitude Reporting Facility
EDT Latitude Longitude Course Direction KTS MPH feet Rate Location/Type
Sun 08:15:48 AM 32.8333 -97.3667 337° Northwest 192 221 1,200  Level Dallas / Fort Worth TRACON
Sun 08:16:30 AM 32.8667 -97.3833 337° Northwest 208 239 3,200 2,538 Climbing Dallas / Fort Worth TRACON
Sun 08:17:06 AM 32.8919 -97.4072 322° Northwest 221 254 4,500 2,563 Climbing Fort Worth Center
Sun 08:18:06 AM 32.8539 -97.4683 233° Southwest 251 289 7,300 1,983 Climbing Fort Worth Center
Sun 08:19:07 AM 32.7789 -97.4483 167° South 281 323 8,500 1,770 Climbing Fort Worth Center
Sun 08:20:08 AM 32.7103 -97.3811 140° Southeast 323 372 10,900 2,529 Climbing Fort Worth Center
Sun 08:21:08 AM 32.6419 -97.2986 135° Southeast 350 403 13,600 2,678 Climbing Fort Worth Center
Sun 08:22:09 AM 32.5744 -97.2169 134° Southeast 347 399 16,300 2,262 Climbing Fort Worth Center
Sun 08:23:10 AM 32.4772 -97.1683 157° South 371 427 18,200 2,361 Climbing Fort Worth Center
Sun 08:24:11 AM 32.3833 -97.1114 153° Southeast 379 436 21,100 2,628 Climbing Fort Worth Center
Sun 08:25:11 AM 32.2903 -97.0539 152° Southeast 377 434 23,500 1,983 Climbing Fort Worth Center
Sun 08:26:12 AM 32.2050 -97.0022 153° Southeast 382 440 25,100 1,525 Climbing Fort Worth Center
Sun 08:27:13 AM 32.1047 -96.9403 152° Southeast 399 459 26,600 1,623 Climbing Fort Worth Center
Sun 08:28:14 AM 31.9800 -96.8631 152° Southeast 418 481 28,400 1,475 Climbing Fort Worth Center
Sun 08:29:15 AM 31.8794 -96.8025 153° Southeast 425 489 29,600 1,190 Climbing Fort Worth Center
Sun 08:30:15 AM 31.7694 -96.7375 153° Southeast 434 499 30,800 694 Climbing Fort Worth Center
Sun 08:31:16 AM 31.6544 -96.6725 154° Southeast 448 516 31,000 102 Climbing Fort Worth Center
Sun 08:32:13 AM 31.5342 -96.6006 153° Southeast 470 541 31,000 -153 Level Houston Center
Sun 08:33:14 AM 31.4156 -96.5281 152° Southeast 473 544 30,700 -885 Descending Houston Center
Sun 08:34:15 AM 31.2953 -96.4561 153° Southeast 477 549 29,200 -1,230 Descending Houston Center
Sun 08:35:16 AM 31.1947 -96.3953 153° Southeast 480 552 28,200 -1,426 Descending Houston Center
Sun 08:36:17 AM 31.0764 -96.3269 154° Southeast 471 542 26,300 -2,016 Descending Houston Center
Sun 08:37:18 AM 30.9572 -96.2539 152° Southeast 475 547 24,100 -2,508 Descending Houston Center
Sun 08:38:19 AM 30.8319 -96.1483 144° Southeast 471 542 21,200 -2,852 Descending Houston Center
Sun 08:39:20 AM 30.7347 -96.0600 142° Southeast 442 509 18,300 -2,813 Descending Houston Center
Sun 08:39:55 AM 30.6822 -96.0111 141° Southeast 392 451 16,700 -2,600 Descending Houston Center
Sun 08:40:50 AM 30.6083 -95.9567 148° Southeast 346 398 14,400 -2,345 Descending Houston Center
Sun 08:41:22 AM 30.5697 -95.9283 148° Southeast 352 405 13,300 -1,279 Descending Houston Center
Sun 08:41:51 AM 30.5281 -95.9028 152° Southeast 338 389 13,100 -295 Descending Houston Center
Sun 08:42:23 AM 30.4875 -95.8769 151° Southeast 339 390 13,000  Descending Houston Center
Sun 08:42:58 AM 30.4306 -95.8439 153° Southeast 337 388 13,100  Climbing Houston Center
Sun 08:43:24 AM 30.4042 -95.8239 147° Southeast 339 390 13,000  Descending Houston Center
Sun 08:43:59 AM 30.3481 -95.7881 151° Southeast 344 396 13,100 -295 Climbing Houston Center
Sun 08:44:25 AM 30.3231 -95.7675 145° Southeast 342 394 12,700 -1,612 Descending Houston Center
Sun 08:45:06 AM 30.2581 -95.7211 148° Southeast 335 386 11,300 -1,800 Descending Houston Center
Sun 08:45:25 AM 30.2450 -95.7103 144° Southeast 336 387 10,900 -1,091 Descending Houston Center
Sun 08:46:01 AM 30.1911 -95.6758 151° Southeast 314 361 10,300 -1,377 Descending Houston Center
Sun 08:46:26 AM 30.1683 -95.6594 148° Southeast 324 373 9,500 -2,111 Descending Houston Center
Sun 08:46:55 AM 30.1189 -95.6408 162° South 310 357 8,400 -1,672 Descending Houston Center
Sun 08:47:27 AM 30.0892 -95.6275 159° South 307 353 7,800 -1,164 Descending Houston Center
Sun 08:48:02 AM 30.0344 -95.6122 166° South 278 320 7,100 -774 Descending Houston Center
Sun 08:48:29 AM 30.0167 -95.6083 169° South 279 321 7,000  Descending Houston Center
Sun 08:48:57 AM 29.9661 -95.6011 173° South 277 319 7,100  Climbing Houston Center
Sun 08:49:30 AM 29.9406 -95.5958 170° South 275 316 7,000  Descending Houston Center
Sun 08:49:58 AM 29.8847 -95.5817 168° South 290 334 7,100  Climbing Houston Center
Sun 08:50:31 AM 29.8461 -95.5711 167° South 287 330 7,000  Descending Houston Center
Sun 08:50:59 AM 29.8094 -95.5617 167° South 273 314 7,100 -492 Climbing Houston Center
Sun 08:51:32 AM 29.7722 -95.5531 169° South 279 321 6,500 -984 Descending Houston Center
Sun 08:52:00 AM 29.7342 -95.5442 169° South 278 320 6,100 -492 Descending Houston Center
Sun 08:52:33 AM 29.6983 -95.5339 166° South 275 316 6,000 -787 Descending Houston Center
Sun 08:53:01 AM 29.6589 -95.5242 168° South 267 307 5,300 -1,967 Descending Houston Center
Sun 08:53:34 AM 29.6239 -95.5147 167° South 276 318 4,000 -2,000 Descending Houston Center
Sun 08:54:01 AM 29.5794 -95.5025 167° South 278 320 3,300 -984 Descending Houston Center
Sun 08:54:35 AM 29.5592 -95.4767 132° Southeast 268 308 3,000 -197 Descending Houston Center
Sun 08:55:02 AM 29.5364 -95.4453 130° Southeast 226 260 3,100 -98 Climbing Houston Center
Sun 08:55:36 AM 29.5244 -95.4167 116° Southeast 238 274 2,900 -627 Descending Houston Center
Sun 08:56:09 AM 29.5456 -95.3842 53° Northeast 191 220 2,400 -885 Descending Houston Center
Sun 08:56:37 AM 29.5589 -95.3756 29° Northeast 206 237 2,000 -885 Descending Houston Center
Sun 08:57:10 AM 29.5842 -95.3481 43° Northeast 152 175 1,500 -787 Descending Houston Center
Sun 08:57:38 AM 29.5914 -95.3400 44° Northeast 174 200 1,200 -689 Descending Houston Center
Sun 08:58:11 AM 29.6069 -95.3214 46° Northeast 119 137 800 -492 Descending Houston Center
Sun 08:58:39 AM 29.6144 -95.3139 41° Northeast 135 155 700 -590 Descending Houston Center
Sun 08:59:12 AM 29.6317 -95.2944 44° Northeast 132 152 200 -590 Descending Houston Center
Sun 08:59:40 AM 29.6414 -95.2831 46° Northeast 127 146 100 -214 Descending Houston Center

Login

Don't have an account? Register now (free) for customized features, flight alerts, and more!